Time;durP1;ratioP1;P1;durP2;ratioP2;P2;SDS_P1;SDS_P2;PMS_P1;PMS_P2;Temp;Humidity;BMP_temperature;BMP_pressure;BME280_temperature;BME280_humidity;BME280_pressure;Samples;Min_cycle;Max_cycle;Signal;HPM_P1;HPM_P2
2022/01/29 00:00:00;;;;;;;64.90;22.90;;;;;;;3.99;57.60;100259.59;117219;1186;21857;-74
2022/01/29 00:02:29;;;;;;;69.90;25.40;;;;;;;4.03;57.55;100260.34;117283;1185;21857;-54
2022/01/29 00:04:57;;;;;;;63.10;23.80;;;;;;;4.06;57.56;100263.67;117279;1182;23596;-73
2022/01/29 00:07:26;;;;;;;55.30;19.30;;;;;;;4.07;57.32;100268.02;117239;1186;23537;-68
2022/01/29 00:10:02;;;;;;;65.60;24.10;;;;;;;4.08;57.49;100272.56;117237;1185;21964;-52
2022/01/29 00:12:30;;;;;;;41.00;14.90;;;;;;;4.10;57.52;100278.14;117105;1188;22973;-71
2022/01/29 00:14:58;;;;;;;59.90;21.10;;;;;;;4.10;57.48;100279.70;117292;1186;23472;-51
2022/01/29 00:17:27;;;;;;;70.50;22.80;;;;;;;4.08;57.43;100277.25;117329;1186;22648;-69
2022/01/29 00:19:55;;;;;;;55.20;19.30;;;;;;;4.08;57.53;100280.90;117195;1185;22796;-52
2022/01/29 00:22:24;;;;;;;58.50;18.70;;;;;;;4.10;57.37;100279.02;117241;1185;21974;-71
2022/01/29 00:24:53;;;;;;;51.80;17.90;;;;;;;4.12;57.69;100282.00;117227;1186;22162;-69
2022/01/29 00:27:22;;;;;;;46.60;17.80;;;;;;;4.14;57.46;100285.67;117249;1182;21854;-52
2022/01/29 00:29:50;;;;;;;57.30;19.00;;;;;;;4.17;57.68;100286.05;117101;1188;21855;-51
2022/01/29 00:32:19;;;;;;;41.50;15.00;;;;;;;4.20;57.52;100287.11;117139;1182;23500;-53
2022/01/29 00:34:47;;;;;;;28.30;10.40;;;;;;;4.22;57.52;100286.62;117173;1185;23452;-70
2022/01/29 00:37:16;;;;;;;18.00;9.20;;;;;;;4.23;57.54;100282.45;117167;1182;23488;-51
2022/01/29 00:39:44;;;;;;;19.30;8.60;;;;;;;4.25;57.58;100282.33;117218;1182;24178;-53
2022/01/29 00:42:13;;;;;;;13.20;7.20;;;;;;;4.28;57.60;100285.83;117090;1187;22014;-51
2022/01/29 00:44:44;;;;;;;10.60;6.70;;;;;;;4.29;57.47;100286.54;117184;1182;23550;-69
2022/01/29 00:47:13;;;;;;;9.70;6.60;;;;;;;4.30;57.75;100285.51;117210;1182;24307;-69
2022/01/29 00:49:42;;;;;;;8.20;5.20;;;;;;;4.30;57.57;100288.63;117185;1185;24249;-52
2022/01/29 00:52:11;;;;;;;8.10;4.90;;;;;;;4.32;57.59;100292.30;117202;1185;22147;-69
2022/01/29 00:54:39;;;;;;;10.00;5.80;;;;;;;4.34;57.54;100295.63;117364;1185;23700;-53
2022/01/29 00:57:08;;;;;;;6.70;4.50;;;;;;;4.35;57.61;100290.60;117138;1185;23583;-52
2022/01/29 00:59:36;;;;;;;7.10;4.50;;;;;;;4.37;57.64;100293.59;117213;1182;23488;-53
2022/01/29 01:02:08;;;;;;;6.80;4.40;;;;;;;4.39;57.51;100292.91;117165;1179;21864;-66
2022/01/29 01:04:39;;;;;;;5.90;4.50;;;;;;;4.42;57.73;100293.11;117179;1183;23017;-68
2022/01/29 01:07:08;;;;;;;6.10;4.30;;;;;;;4.44;57.66;100296.61;117142;1185;22779;-67
2022/01/29 01:09:36;;;;;;;5.50;3.60;;;;;;;4.48;57.69;100297.35;117193;1185;21855;-52
2022/01/29 01:12:06;;;;;;;4.20;3.40;;;;;;;4.51;57.74;100299.13;117303;1185;22926;-68
2022/01/29 01:14:36;;;;;;;5.40;3.60;;;;;;;4.53;57.77;100300.89;117075;1179;21898;-68
2022/01/29 01:17:04;;;;;;;4.20;3.20;;;;;;;4.54;57.65;100297.77;117145;1181;21861;-69
2022/01/29 01:19:48;;;;;;;5.30;3.70;;;;;;;4.54;57.48;100299.15;117151;1186;23549;-68
2022/01/29 01:22:17;;;;;;;5.90;3.40;;;;;;;4.54;57.68;100301.23;116877;1188;23478;-54
2022/01/29 01:24:47;;;;;;;5.30;3.40;;;;;;;4.54;57.61;100302.29;117302;1185;24284;-68
2022/01/29 01:27:15;;;;;;;6.20;3.70;;;;;;;4.55;57.73;100302.47;117309;1186;22559;-68
2022/01/29 01:29:44;;;;;;;3.80;2.90;;;;;;;4.55;57.50;100300.56;117219;1182;21852;-54
2022/01/29 01:32:12;;;;;;;4.90;2.90;;;;;;;4.55;57.40;100306.13;117205;1183;23627;-67
2022/01/29 01:34:49;;;;;;;5.20;3.20;;;;;;;4.54;57.47;100306.98;117218;1186;24165;-68
2022/01/29 01:37:32;;;;;;;4.50;3.10;;;;;;;4.53;57.54;100311.84;117207;1182;22929;-54
2022/01/29 01:40:00;;;;;;;5.40;2.90;;;;;;;4.50;57.46;100311.97;117125;1180;21877;-68
2022/01/29 01:42:29;;;;;;;4.70;3.20;;;;;;;4.46;57.46;100307.22;117213;1186;21851;-53
2022/01/29 01:45:03;;;;;;;4.70;3.50;;;;;;;4.42;57.40;100307.88;117182;1179;22056;-61
2022/01/29 01:47:31;;;;;;;6.00;3.70;;;;;;;4.37;57.48;100309.57;117089;1186;21866;-68
2022/01/29 01:50:00;;;;;;;4.60;3.30;;;;;;;4.34;57.40;100311.27;117136;1186;21852;-67
2022/01/29 01:52:30;;;;;;;4.10;3.00;;;;;;;4.30;57.39;100312.42;117321;1182;22988;-51
2022/01/29 01:54:59;;;;;;;4.90;3.40;;;;;;;4.29;57.50;100316.23;117258;1183;23461;-51
2022/01/29 01:57:27;;;;;;;6.80;3.70;;;;;;;4.31;57.53;100321.30;117229;1183;21928;-52
2022/01/29 01:59:55;;;;;;;4.60;3.30;;;;;;;4.34;57.55;100326.72;117199;1179;23476;-52
2022/01/29 02:02:24;;;;;;;4.90;3.70;;;;;;;4.36;57.42;100329.18;117159;1182;21890;-66
2022/01/29 02:04:52;;;;;;;4.90;3.40;;;;;;;4.39;57.51;100331.48;117291;1182;22888;-53
2022/01/29 02:07:20;;;;;;;6.10;4.40;;;;;;;4.42;57.50;100340.71;117179;1182;22153;-68
2022/01/29 02:09:49;;;;;;;6.60;4.40;;;;;;;4.45;57.59;100344.75;117347;1182;23552;-53
2022/01/29 02:12:18;;;;;;;4.90;3.80;;;;;;;4.51;57.67;100349.34;117185;1179;22645;-63
2022/01/29 02:14:46;;;;;;;5.60;3.60;;;;;;;4.52;57.56;100356.47;117309;1182;22626;-57
2022/01/29 02:17:16;;;;;;;5.20;3.90;;;;;;;4.54;57.65;100356.69;117002;1185;23475;-66
2022/01/29 02:19:44;;;;;;;6.60;3.60;;;;;;;4.54;57.57;100365.02;117335;1183;23551;-53
2022/01/29 02:22:12;;;;;;;7.60;4.30;;;;;;;4.56;57.69;100371.66;117181;1185;22531;-67
2022/01/29 02:24:41;;;;;;;6.50;4.10;;;;;;;4.57;57.48;100369.75;117112;1187;23475;-58
2022/01/29 02:27:10;;;;;;;5.30;3.80;;;;;;;4.58;57.67;100376.19;117303;1183;23484;-54
2022/01/29 02:29:38;;;;;;;5.00;3.50;;;;;;;4.58;57.71;100375.67;117308;1183;21848;-68
2022/01/29 02:32:07;;;;;;;5.70;4.10;;;;;;;4.57;57.58;100375.66;117194;1189;23472;-54
2022/01/29 02:34:36;;;;;;;7.90;4.80;;;;;;;4.58;57.49;100376.88;117201;1183;23538;-68
2022/01/29 02:37:04;;;;;;;7.00;4.10;;;;;;;4.57;57.50;100382.61;117211;1182;24155;-54
2022/01/29 02:39:33;;;;;;;7.00;5.10;;;;;;;4.57;57.55;100388.00;117205;1185;21919;-54
2022/01/29 02:42:03;;;;;;;4.80;3.50;;;;;;;4.59;57.57;100390.45;117231;1182;24249;-58
2022/01/29 02:44:31;;;;;;;5.20;3.90;;;;;;;4.59;57.54;100390.29;117055;1187;23739;-66
2022/01/29 02:47:15;;;;;;;8.60;4.60;;;;;;;4.59;57.65;100393.94;117223;1181;21851;-51
2022/01/29 02:49:43;;;;;;;6.20;4.50;;;;;;;4.56;57.58;100396.86;117274;1186;23863;-53
2022/01/29 02:52:12;;;;;;;6.10;4.30;;;;;;;4.56;57.54;100399.11;117050;1186;23487;-67
2022/01/29 02:54:41;;;;;;;6.70;4.20;;;;;;;4.55;57.57;100399.63;117177;1186;21892;-66
2022/01/29 02:57:09;;;;;;;5.20;3.90;;;;;;;4.53;57.48;100400.28;117117;1182;23487;-65
2022/01/29 02:59:38;;;;;;;7.00;4.40;;;;;;;4.52;57.67;100398.70;117193;1186;21953;-66
2022/01/29 03:02:06;;;;;;;5.90;4.10;;;;;;;4.51;57.78;100399.04;117416;1182;22632;-53
2022/01/29 03:04:35;;;;;;;6.20;4.20;;;;;;;4.54;57.57;100402.90;117273;1184;21865;-66
2022/01/29 03:07:03;;;;;;;6.70;4.30;;;;;;;4.53;57.67;100399.59;117134;1182;21866;-65
2022/01/29 03:09:32;;;;;;;6.60;4.10;;;;;;;4.53;57.61;100400.98;117167;1179;23645;-64
2022/01/29 03:12:00;;;;;;;6.20;4.50;;;;;;;4.52;57.58;100402.19;117326;1182;22627;-65
2022/01/29 03:14:29;;;;;;;6.80;4.00;;;;;;;4.51;57.72;100411.20;117288;1183;22688;-53
2022/01/29 03:16:57;;;;;;;5.80;4.20;;;;;;;4.50;57.41;100416.75;117212;1186;24174;-51
2022/01/29 03:19:25;;;;;;;5.40;4.20;;;;;;;4.50;57.55;100411.19;117326;1179;21872;-52
2022/01/29 03:21:54;;;;;;;7.60;4.40;;;;;;;4.51;57.55;100412.60;117190;1182;23452;-65
2022/01/29 03:24:24;;;;;;;6.60;4.40;;;;;;;4.51;57.64;100414.67;117156;1183;23455;-64
2022/01/29 03:26:52;;;;;;;7.60;4.50;;;;;;;4.50;57.55;100415.19;117175;1180;22985;-53
2022/01/29 03:29:20;;;;;;;5.80;4.00;;;;;;;4.48;57.60;100417.23;117360;1182;23582;-52
2022/01/29 03:31:48;;;;;;;5.00;3.70;;;;;;;4.45;57.75;100414.95;117148;1182;21857;-65
2022/01/29 03:34:17;;;;;;;5.10;3.50;;;;;;;4.45;57.64;100416.69;117186;1183;24310;-65
2022/01/29 03:36:45;;;;;;;5.50;3.50;;;;;;;4.45;57.60;100420.69;117247;1183;21858;-65
2022/01/29 03:39:14;;;;;;;5.70;3.80;;;;;;;4.45;57.61;100426.08;117098;1186;23459;-52
2022/01/29 03:41:42;;;;;;;5.30;3.80;;;;;;;4.46;57.77;100428.17;117291;1176;21829;-64
2022/01/29 03:44:10;;;;;;;4.80;3.10;;;;;;;4.48;57.61;100428.89;117227;1177;23456;-65
2022/01/29 03:46:39;;;;;;;5.90;3.30;;;;;;;4.50;57.71;100429.95;117151;1186;23455;-53
2022/01/29 03:49:08;;;;;;;4.40;3.20;;;;;;;4.53;57.71;100431.91;117205;1186;22924;-65
2022/01/29 03:51:36;;;;;;;4.50;2.90;;;;;;;4.55;57.87;100440.10;117144;1185;21856;-52
2022/01/29 03:54:04;;;;;;;5.50;3.40;;;;;;;4.57;57.91;100441.70;117135;1185;23473;-52
2022/01/29 03:56:32;;;;;;;4.70;2.30;;;;;;;4.57;57.63;100438.58;117367;1182;21913;-51
2022/01/29 03:59:01;;;;;;;5.00;2.90;;;;;;;4.59;57.69;100438.42;117168;1182;23457;-65
2022/01/29 04:01:29;;;;;;;3.70;2.60;;;;;;;4.59;57.77;100442.25;117139;1181;22930;-65
2022/01/29 04:03:58;;;;;;;4.00;2.50;;;;;;;4.59;57.72;100442.77;117197;1183;24172;-65
2022/01/29 04:06:26;;;;;;;4.40;2.70;;;;;;;4.60;57.67;100447.13;117208;1186;22472;-52
2022/01/29 04:08:54;;;;;;;4.00;2.90;;;;;;;4.59;57.69;100448.86;117276;1186;21927;-51
2022/01/29 04:11:44;;;;;;;4.40;2.70;;;;;;;4.59;57.86;100454.43;117283;1186;21862;-52
2022/01/29 04:14:17;;;;;;;4.30;2.60;;;;;;;4.60;57.77;100460.00;117333;1182;21836;-51
2022/01/29 04:16:45;;;;;;;4.10;2.30;;;;;;;4.60;57.59;100466.60;117236;1185;21947;-51
2022/01/29 04:19:14;;;;;;;3.70;2.20;;;;;;;4.59;57.74;100465.38;117345;1185;23512;-52
2022/01/29 04:21:42;;;;;;;3.30;2.30;;;;;;;4.60;57.64;100471.64;117128;1186;23228;-61
2022/01/29 04:24:11;;;;;;;4.90;2.90;;;;;;;4.61;57.56;100473.58;117151;1183;24185;-65
2022/01/29 04:26:39;;;;;;;4.10;2.20;;;;;;;4.61;57.63;100476.69;117016;1186;23452;-66
2022/01/29 04:29:08;;;;;;;4.60;2.30;;;;;;;4.60;57.60;100482.05;117272;1183;23452;-53
2022/01/29 04:34:11;;;;;;;4.20;2.30;;;;;;;4.55;57.43;100485.48;117209;1185;23509;-62
2022/01/29 04:36:40;;;;;;;4.10;2.40;;;;;;;4.50;57.43;100491.30;117017;1186;24194;-66
2022/01/29 04:39:08;;;;;;;4.20;2.20;;;;;;;4.44;57.52;100496.09;117226;1182;23546;-51
2022/01/29 04:41:37;;;;;;;3.30;1.70;;;;;;;4.39;57.32;100498.10;117160;1183;24174;-52
2022/01/29 04:44:05;;;;;;;3.50;1.90;;;;;;;4.32;57.41;100503.71;117271;1176;21863;-51
2022/01/29 04:46:33;;;;;;;4.40;1.90;;;;;;;4.25;57.42;100504.48;117181;1183;22730;-59
2022/01/29 04:49:02;;;;;;;3.70;1.90;;;;;;;4.21;57.36;100511.19;117142;1179;23475;-50
2022/01/29 04:51:30;;;;;;;3.80;2.20;;;;;;;4.19;57.52;100516.90;117234;1185;23476;-66
2022/01/29 04:53:58;;;;;;;3.60;2.10;;;;;;;4.15;57.36;100518.75;117173;1186;23478;-52
2022/01/29 04:56:27;;;;;;;5.80;2.10;;;;;;;4.12;57.43;100521.81;117040;1183;22873;-65
2022/01/29 04:58:55;;;;;;;3.40;2.00;;;;;;;4.10;57.35;100524.38;117042;1183;23677;-67
2022/01/29 05:01:23;;;;;;;5.00;2.30;;;;;;;4.09;57.45;100521.60;117139;1186;23478;-67
2022/01/29 05:03:51;;;;;;;3.70;2.40;;;;;;;4.09;57.44;100524.20;117191;1182;23456;-50
2022/01/29 05:06:20;;;;;;;5.80;1.90;;;;;;;4.14;57.38;100527.95;117599;1182;21733;-69
2022/01/29 05:08:49;;;;;;;4.20;2.10;;;;;;;4.15;57.54;100529.17;119328;1185;22158;-53
2022/01/29 05:11:17;;;;;;;5.60;2.60;;;;;;;4.13;57.65;100532.44;119294;1183;21835;-61
2022/01/29 05:13:46;;;;;;;5.40;2.50;;;;;;;4.15;57.51;100540.63;119298;1183;22159;-69
2022/01/29 05:27:05;;;;;;;4.80;2.80;;;;;;;4.28;57.51;100562.90;117007;1185;23644;-65
2022/01/29 05:29:33;;;;;;;5.60;2.80;;;;;;;4.28;57.41;100566.55;117121;1180;23478;-51
2022/01/29 05:32:07;;;;;;;4.70;2.90;;;;;;;4.29;57.42;100571.09;117148;1179;21859;-51
2022/01/29 05:34:35;;;;;;;6.00;2.70;;;;;;;4.29;57.34;100573.18;117093;1185;22918;-51
2022/01/29 05:37:04;;;;;;;4.70;3.10;;;;;;;4.29;57.34;100576.64;117181;1183;23452;-67
2022/01/29 05:39:32;;;;;;;4.70;2.80;;;;;;;4.30;57.45;100584.99;117165;1182;22937;-51
2022/01/29 05:42:00;;;;;;;4.90;3.50;;;;;;;4.27;57.42;100586.17;117167;1179;21860;-51
2022/01/29 05:44:28;;;;;;;6.40;3.30;;;;;;;4.25;57.34;100589.08;117159;1182;22808;-50
2022/01/29 05:46:57;;;;;;;5.40;3.00;;;;;;;4.21;57.47;100586.76;117097;1186;23439;-68
2022/01/29 05:49:25;;;;;;;5.80;3.20;;;;;;;4.18;57.51;100586.70;117116;1184;22650;-51
2022/01/29 05:51:53;;;;;;;4.90;3.30;;;;;;;4.15;57.50;100584.41;117161;1186;23236;-68
2022/01/29 05:54:22;;;;;;;6.00;3.20;;;;;;;4.11;57.19;100585.04;117125;1183;21854;-68
2022/01/29 05:56:51;;;;;;;5.40;3.40;;;;;;;4.10;57.40;100592.99;117259;1180;23098;-69
2022/01/29 05:59:19;;;;;;;4.60;3.10;;;;;;;4.07;57.29;100601.27;117104;1182;21848;-67
2022/01/29 06:01:47;;;;;;;8.30;4.00;;;;;;;4.06;57.58;100609.26;117198;1181;23003;-51
2022/01/29 06:04:16;;;;;;;4.60;3.40;;;;;;;4.07;57.44;100612.22;117274;1182;22928;-61
2022/01/29 06:06:44;;;;;;;6.90;3.40;;;;;;;4.07;57.42;100616.55;117220;1183;23484;-69
2022/01/29 06:09:13;;;;;;;4.70;3.50;;;;;;;4.08;57.35;100621.78;117129;1183;22427;-50
2022/01/29 06:11:41;;;;;;;4.90;3.30;;;;;;;4.08;57.53;100634.29;117344;1181;21858;-50
2022/01/29 06:14:09;;;;;;;4.90;2.90;;;;;;;4.09;57.52;100636.23;117380;1182;23461;-51
2022/01/29 06:16:38;;;;;;;4.50;3.20;;;;;;;4.10;57.41;100640.42;117227;1186;21870;-66
2022/01/29 06:19:06;;;;;;;6.40;3.60;;;;;;;4.12;57.51;100638.52;117309;1182;23525;-67
2022/01/29 06:21:34;;;;;;;5.30;3.50;;;;;;;4.14;57.61;100639.25;117349;1182;23457;-67
2022/01/29 06:24:03;;;;;;;5.40;3.00;;;;;;;4.15;57.48;100636.17;117315;1182;23553;-66
2022/01/29 06:26:32;;;;;;;5.50;3.50;;;;;;;4.18;57.56;100635.52;117202;1186;23585;-51
2022/01/29 06:29:01;;;;;;;5.70;3.10;;;;;;;4.22;57.56;100643.90;117330;1185;23186;-67
2022/01/29 06:31:38;;;;;;;4.50;3.10;;;;;;;4.24;57.74;100645.17;117570;1183;23547;-66
2022/01/29 06:34:06;;;;;;;5.90;3.60;;;;;;;4.27;57.59;100649.75;117314;1179;21983;-50
2022/01/29 06:36:35;;;;;;;4.60;3.00;;;;;;;4.32;57.44;100650.52;117364;1185;23628;-49
2022/01/29 06:39:04;;;;;;;5.60;3.10;;;;;;;4.38;57.51;100647.52;117197;1182;23451;-49
2022/01/29 06:41:32;;;;;;;4.60;2.70;;;;;;;4.42;57.60;100651.23;117349;1182;23033;-49
2022/01/29 06:44:00;;;;;;;4.20;2.60;;;;;;;4.46;57.59;100653.38;117209;1182;24182;-63
2022/01/29 06:46:29;;;;;;;6.20;3.30;;;;;;;4.50;57.52;100657.25;117188;1183;24224;-63
2022/01/29 06:48:57;;;;;;;4.90;3.00;;;;;;;4.51;57.53;100662.33;117347;1185;23646;-49
2022/01/29 06:51:26;;;;;;;5.50;2.80;;;;;;;4.54;57.50;100666.55;117153;1186;24172;-61
2022/01/29 06:53:54;;;;;;;4.90;3.30;;;;;;;4.58;57.61;100667.31;117136;1186;22859;-62
2022/01/29 06:56:26;;;;;;;5.90;3.20;;;;;;;4.62;57.74;100667.38;117289;1182;24148;-50
2022/01/29 06:58:54;;;;;;;6.50;3.00;;;;;;;4.66;57.69;100671.42;117222;1178;21873;-61
2022/01/29 07:01:40;;;;;;;5.50;3.40;;;;;;;4.70;57.78;100673.08;117215;1183;23453;-62
2022/01/29 07:04:08;;;;;;;5.30;3.40;;;;;;;4.74;57.69;100673.30;117221;1182;21854;-49
2022/01/29 07:06:37;;;;;;;4.50;2.80;;;;;;;4.76;57.59;100674.22;117241;1181;22751;-51
2022/01/29 07:09:05;;;;;;;5.10;3.10;;;;;;;4.81;57.75;100677.94;117178;1182;23550;-63
2022/01/29 07:11:34;;;;;;;5.10;3.50;;;;;;;4.84;57.74;100678.34;117275;1182;24189;-49
2022/01/29 07:14:03;;;;;;;5.20;2.90;;;;;;;4.85;57.84;100681.15;117261;1186;24172;-49
2022/01/29 07:16:34;;;;;;;5.80;2.80;;;;;;;4.86;57.83;100685.84;117220;1185;23486;-49
2022/01/29 07:19:03;;;;;;;6.00;2.50;;;;;;;4.90;57.83;100686.24;117313;1182;22644;-50
2022/01/29 07:21:33;;;;;;;4.00;2.40;;;;;;;4.93;57.66;100690.98;117278;1179;21881;-49
2022/01/29 07:24:02;;;;;;;3.30;2.10;;;;;;;4.97;58.06;100694.37;117218;1185;22888;-49
2022/01/29 07:26:31;;;;;;;4.00;2.50;;;;;;;5.00;57.89;100697.71;117109;1183;23579;-49
2022/01/29 07:28:59;;;;;;;4.70;2.50;;;;;;;5.03;57.86;100687.14;117264;1183;21861;-50
2022/01/29 07:31:27;;;;;;;5.00;2.50;;;;;;;5.04;57.90;100690.31;117161;1183;22986;-62
2022/01/29 07:33:56;;;;;;;6.70;3.10;;;;;;;5.06;57.68;100692.59;117327;1179;22941;-49
2022/01/29 07:36:24;;;;;;;4.00;2.50;;;;;;;5.07;57.73;100699.22;117251;1182;22674;-49
2022/01/29 07:38:52;;;;;;;5.00;2.70;;;;;;;5.09;57.85;100707.24;117259;1182;23487;-49
2022/01/29 07:41:20;;;;;;;6.00;2.40;;;;;;;5.10;57.72;100707.07;117309;1183;21850;-50
2022/01/29 07:43:49;;;;;;;4.70;2.40;;;;;;;5.10;57.76;100708.48;117136;1183;22941;-50
2022/01/29 07:46:18;;;;;;;8.00;3.90;;;;;;;5.11;57.69;100716.66;117181;1186;23474;-57
2022/01/29 07:48:52;;;;;;;4.90;3.30;;;;;;;5.13;57.81;100717.22;117210;1183;22940;-63
2022/01/29 07:51:20;;;;;;;5.00;2.70;;;;;;;5.14;57.89;100719.32;117112;1186;21827;-62
2022/01/29 07:53:48;;;;;;;4.40;2.20;;;;;;;5.14;57.81;100722.28;117232;1186;23454;-64
2022/01/29 07:56:17;;;;;;;4.30;2.10;;;;;;;5.13;57.84;100726.09;117230;1186;23479;-63
2022/01/29 07:58:47;;;;;;;5.10;2.30;;;;;;;5.14;57.64;100727.86;117051;1186;23571;-50
2022/01/29 08:01:15;;;;;;;3.70;1.90;;;;;;;5.16;57.86;100734.67;117219;1182;23566;-50
2022/01/29 08:03:48;;;;;;;5.40;2.70;;;;;;;5.18;57.79;100735.56;117115;1178;22638;-50
2022/01/29 08:06:17;;;;;;;3.80;2.00;;;;;;;5.22;57.81;100740.86;117477;1186;21852;-63
2022/01/29 08:08:45;;;;;;;3.50;1.80;;;;;;;5.26;57.84;100742.46;116995;1186;21856;-63
2022/01/29 08:11:14;;;;;;;2.60;1.50;;;;;;;5.27;57.73;100749.10;117245;1182;23646;-49
2022/01/29 08:13:43;;;;;;;3.60;1.60;;;;;;;5.29;57.83;100752.26;117306;1184;23474;-62
2022/01/29 08:16:14;;;;;;;5.20;2.50;;;;;;;5.31;57.64;100751.23;117234;1176;21911;-54
2022/01/29 08:18:45;;;;;;;2.90;1.70;;;;;;;5.34;57.83;100752.00;117385;1185;21998;-63
2022/01/29 08:21:15;;;;;;;3.80;2.20;;;;;;;5.39;57.86;100751.02;117169;1182;21864;-50
2022/01/29 08:23:43;;;;;;;4.10;2.00;;;;;;;5.45;57.63;100754.60;118615;1183;21941;-49
2022/01/29 08:26:12;;;;;;;2.90;1.40;;;;;;;5.49;58.02;100756.58;119025;1183;21865;-50
2022/01/29 08:28:40;;;;;;;4.40;1.70;;;;;;;5.54;57.59;100753.49;117269;1182;21930;-62
2022/01/29 08:31:09;;;;;;;2.70;1.40;;;;;;;5.58;57.56;100757.02;117262;1182;22928;-62
2022/01/29 08:33:38;;;;;;;1.80;0.90;;;;;;;5.59;57.76;100762.45;117201;1186;21947;-50
2022/01/29 08:36:08;;;;;;;2.70;1.30;;;;;;;5.62;57.73;100766.50;117229;1185;21863;-51
2022/01/29 08:38:36;;;;;;;2.60;1.10;;;;;;;5.65;57.70;100777.69;117256;1182;22645;-63
2022/01/29 08:41:06;;;;;;;41.80;5.30;;;;;;;5.66;57.75;100780.66;117191;1182;24762;-63
2022/01/29 08:43:35;;;;;;;4.00;1.30;;;;;;;5.67;57.77;100784.34;117248;1185;22788;-52
2022/01/29 08:46:06;;;;;;;3.00;1.50;;;;;;;5.70;57.79;100785.41;117001;1184;21842;-64
2022/01/29 08:48:35;;;;;;;2.80;1.50;;;;;;;5.72;57.80;100784.23;117223;1183;23529;-52
2022/01/29 08:51:04;;;;;;;5.30;1.80;;;;;;;5.77;57.88;100785.69;117109;1180;21877;-52
2022/01/29 08:53:34;;;;;;;2.20;1.10;;;;;;;5.83;57.74;100786.29;117129;1186;21858;-64
2022/01/29 08:56:04;;;;;;;2.40;1.10;;;;;;;5.88;57.91;100789.14;117304;1185;22930;-63
2022/01/29 08:58:33;;;;;;;2.40;0.90;;;;;;;5.93;58.15;100787.30;117011;1185;21848;-64
2022/01/29 09:01:07;;;;;;;6.00;1.30;;;;;;;5.96;58.09;100789.60;117297;1176;23550;-64
2022/01/29 09:03:36;;;;;;;1.70;1.10;;;;;;;6.01;57.99;100787.25;117297;1183;21860;-53
2022/01/29 09:06:06;;;;;;;2.30;1.20;;;;;;;6.05;57.92;100788.34;117075;1185;24161;-65
2022/01/29 09:08:35;;;;;;;2.70;0.90;;;;;;;6.06;58.22;100788.89;117234;1182;22979;-65
2022/01/29 09:11:03;;;;;;;2.60;1.10;;;;;;;6.11;57.96;100787.39;117187;1181;24711;-51
2022/01/29 09:13:32;;;;;;;2.80;1.20;;;;;;;6.13;57.73;100787.77;117339;1182;23564;-51
2022/01/29 09:16:01;;;;;;;3.00;1.40;;;;;;;6.15;57.73;100790.77;117383;1182;23711;-65
2022/01/29 09:18:30;;;;;;;2.00;0.90;;;;;;;6.18;58.04;100797.92;117311;1181;21858;-66
2022/01/29 09:20:59;;;;;;;1.90;1.00;;;;;;;6.21;58.01;100796.91;117133;1186;22719;-51
2022/01/29 09:23:27;;;;;;;1.70;0.90;;;;;;;6.23;57.99;100797.45;117312;1182;23526;-51
2022/01/29 09:26:03;;;;;;;2.00;1.00;;;;;;;6.26;58.08;100797.85;117375;1181;24287;-67
2022/01/29 09:28:32;;;;;;;1.80;0.90;;;;;;;6.34;57.86;100801.08;117227;1185;21904;-68
2022/01/29 09:31:00;;;;;;;1.50;0.80;;;;;;;6.42;57.92;100797.69;117147;1179;24279;-51
2022/01/29 09:33:29;;;;;;;3.50;1.00;;;;;;;6.52;58.00;100804.08;117263;1177;23487;-68
2022/01/29 09:35:57;;;;;;;2.10;0.70;;;;;;;6.59;57.81;100803.10;117105;1187;22006;-51
2022/01/29 09:38:26;;;;;;;1.50;0.70;;;;;;;6.60;57.68;100802.77;117104;1186;22182;-68
2022/01/29 09:40:54;;;;;;;2.70;0.80;;;;;;;6.58;57.57;100803.79;117193;1182;21935;-68
2022/01/29 09:43:27;;;;;;;1.10;0.50;;;;;;;6.58;57.44;100803.98;117452;1182;24176;-68
2022/01/29 09:45:55;;;;;;;1.80;0.50;;;;;;;6.53;57.61;100808.98;117094;1182;23574;-50
2022/01/29 09:48:28;;;;;;;2.30;1.20;;;;;;;6.48;57.53;100807.69;116995;1187;22483;-67
2022/01/29 09:50:57;;;;;;;2.30;0.90;;;;;;;6.44;57.68;100804.86;117244;1186;24334;-50
2022/01/29 09:53:25;;;;;;;1.00;0.50;;;;;;;6.43;57.69;100808.67;117152;1186;21853;-50
2022/01/29 09:55:54;;;;;;;1.30;0.40;;;;;;;6.42;57.57;100808.30;117321;1183;24083;-50
2022/01/29 09:58:22;;;;;;;1.30;0.50;;;;;;;6.43;57.44;100811.29;117317;1184;23549;-67
2022/01/29 10:00:52;;;;;;;2.20;0.60;;;;;;;6.44;57.92;100811.48;117293;1182;22623;-63
2022/01/29 10:03:21;;;;;;;1.90;0.70;;;;;;;6.42;57.65;100814.42;117214;1178;23454;-67
2022/01/29 10:05:51;;;;;;;1.30;0.60;;;;;;;6.38;57.62;100818.21;117299;1178;23593;-68
2022/01/29 10:08:21;;;;;;;1.00;0.40;;;;;;;6.41;57.68;100815.63;117160;1177;21868;-67
2022/01/29 10:10:50;;;;;;;0.90;0.50;;;;;;;6.43;57.79;100812.33;117280;1185;21860;-66
2022/01/29 10:13:37;;;;;;;1.30;0.50;;;;;;;6.44;57.61;100811.30;117261;1185;23611;-66
2022/01/29 10:16:20;;;;;;;1.10;0.40;;;;;;;6.42;57.62;100807.80;117242;1185;22857;-51
2022/01/29 10:19:08;;;;;;;1.10;0.30;;;;;;;6.41;57.48;100809.00;117070;1183;23497;-51
2022/01/29 10:21:46;;;;;;;0.90;0.40;;;;;;;6.39;57.52;100809.16;117220;1185;21881;-51
2022/01/29 10:24:18;;;;;;;0.80;0.40;;;;;;;6.34;57.36;100813.98;117098;1188;21899;-65
2022/01/29 10:26:48;;;;;;;1.70;0.80;;;;;;;6.26;57.31;100815.28;117227;1182;22967;-66
2022/01/29 10:29:21;;;;;;;2.20;1.20;;;;;;;6.19;57.38;100821.64;117242;1182;22733;-51
2022/01/29 10:32:00;;;;;;;1.30;0.80;;;;;;;6.07;57.17;100818.16;117141;1186;21896;-65
2022/01/29 10:34:32;;;;;;;1.90;0.90;;;;;;;5.96;57.13;100822.70;117130;1182;21861;-50
2022/01/29 10:37:15;;;;;;;2.40;1.00;;;;;;;5.89;57.07;100822.94;117054;1186;22337;-66
2022/01/29 10:40:16;;;;;;;1.40;0.80;;;;;;;5.84;56.98;100829.84;117278;1176;22657;-65
2022/01/29 10:42:45;;;;;;;3.40;0.70;;;;;;;5.78;57.22;100832.37;117084;1187;22863;-65
2022/01/29 10:45:14;;;;;;;2.70;0.70;;;;;;;5.71;57.21;100835.23;117290;1176;22942;-50
2022/01/29 10:47:55;;;;;;;2.20;0.70;;;;;;;5.66;57.06;100835.50;117281;1185;23553;-50
2022/01/29 10:50:28;;;;;;;1.10;0.50;;;;;;;5.60;57.06;100835.23;117201;1182;23553;-51
2022/01/29 10:52:58;;;;;;;4.00;2.10;;;;;;;5.59;57.28;100834.17;117231;1184;21893;-51
2022/01/29 10:55:27;;;;;;;3.20;1.50;;;;;;;5.59;57.22;100832.59;117260;1185;22915;-65
2022/01/29 10:57:58;;;;;;;3.10;0.90;;;;;;;5.58;57.05;100835.38;117101;1182;21877;-65
2022/01/29 11:00:31;;;;;;;5.40;2.20;;;;;;;5.58;57.11;100837.47;117339;1182;21901;-65
2022/01/29 11:03:10;;;;;;;5.30;2.00;;;;;;;5.61;57.29;100835.77;117299;1185;23553;-50
2022/01/29 11:05:41;;;;;;;2.20;0.90;;;;;;;5.65;57.47;100832.88;117264;1182;24275;-50
2022/01/29 11:08:11;;;;;;;2.40;1.00;;;;;;;5.69;57.13;100831.36;117017;1182;22964;-64
2022/01/29 11:10:40;;;;;;;1.60;0.50;;;;;;;5.70;57.39;100832.61;117216;1183;21954;-65
2022/01/29 11:13:29;;;;;;;2.10;0.80;;;;;;;5.69;57.19;100833.65;117082;1182;23036;-65
2022/01/29 11:15:59;;;;;;;1.20;0.50;;;;;;;5.66;57.04;100838.81;117083;1186;22938;-64
2022/01/29 11:18:33;;;;;;;3.30;0.60;;;;;;;5.65;57.12;100837.75;117030;1184;22899;-50
2022/01/29 11:21:02;;;;;;;2.00;0.80;;;;;;;5.64;57.13;100837.55;117253;1185;21861;-65
2022/01/29 11:23:32;;;;;;;2.20;1.30;;;;;;;5.59;57.13;100842.19;117095;1187;21874;-64
2022/01/29 11:26:01;;;;;;;2.40;0.90;;;;;;;5.57;57.33;100844.93;117117;1181;23599;-64
2022/01/29 11:28:29;;;;;;;2.70;1.10;;;;;;;5.54;57.33;100845.23;117107;1186;21945;-64
2022/01/29 11:31:13;;;;;;;3.60;1.10;;;;;;;5.51;56.94;100849.20;117079;1182;22330;-49
2022/01/29 11:33:59;;;;;;;4.80;1.20;;;;;;;5.50;56.88;100853.19;117140;1186;21863;-65
2022/01/29 11:36:47;;;;;;;2.30;1.00;;;;;;;5.49;56.81;100849.86;117240;1183;22522;-50
2022/01/29 11:39:20;;;;;;;4.30;1.20;;;;;;;5.46;56.97;100854.34;117157;1186;21904;-50
2022/01/29 11:42:10;;;;;;;4.90;1.50;;;;;;;5.43;57.12;100860.73;117073;1188;23341;-63
2022/01/29 11:44:40;;;;;;;2.80;1.10;;;;;;;5.38;56.95;100858.91;117150;1182;22662;-49
2022/01/29 11:47:25;;;;;;;3.50;0.90;;;;;;;5.31;56.99;100864.52;117027;1182;22371;-49
2022/01/29 11:50:27;;;;;;;2.10;0.90;;;;;;;5.23;57.26;100863.00;117153;1183;22847;-51